sensor_id;sensor_type;location;lat;lon;timestamp;temperature;humidity
32293;DHT22;43233;48.608;8.838;2024-03-08T00:00:15;3.30;67.30
32293;DHT22;43233;48.608;8.838;2024-03-08T00:02:44;3.30;67.40
32293;DHT22;43233;48.608;8.838;2024-03-08T00:05:10;3.30;67.40
32293;DHT22;43233;48.608;8.838;2024-03-08T00:07:40;3.30;67.40
32293;DHT22;43233;48.608;8.838;2024-03-08T00:10:10;3.20;67.00
32293;DHT22;43233;48.608;8.838;2024-03-08T00:12:45;3.20;67.00
32293;DHT22;43233;48.608;8.838;2024-03-08T00:15:13;3.10;67.00
32293;DHT22;43233;48.608;8.838;2024-03-08T00:17:40;3.20;67.20
32293;DHT22;43233;48.608;8.838;2024-03-08T00:20:06;3.20;67.20
32293;DHT22;43233;48.608;8.838;2024-03-08T00:22:40;3.10;67.10
32293;DHT22;43233;48.608;8.838;2024-03-08T00:25:07;3.10;67.10
32293;DHT22;43233;48.608;8.838;2024-03-08T00:27:37;3.10;66.90
32293;DHT22;43233;48.608;8.838;2024-03-08T00:30:09;3.10;67.10
32293;DHT22;43233;48.608;8.838;2024-03-08T00:32:36;3.10;67.00
32293;DHT22;43233;48.608;8.838;2024-03-08T00:35:02;3.10;67.20
32293;DHT22;43233;48.608;8.838;2024-03-08T00:37:28;3.00;67.00
32293;DHT22;43233;48.608;8.838;2024-03-08T00:39:53;3.00;67.00
32293;DHT22;43233;48.608;8.838;2024-03-08T00:42:20;3.00;66.90
32293;DHT22;43233;48.608;8.838;2024-03-08T00:44:46;3.00;67.00
32293;DHT22;43233;48.608;8.838;2024-03-08T00:47:12;3.00;67.00
32293;DHT22;43233;48.608;8.838;2024-03-08T00:49:37;3.00;66.90
32293;DHT22;43233;48.608;8.838;2024-03-08T00:52:06;2.90;66.70
32293;DHT22;43233;48.608;8.838;2024-03-08T00:54:33;2.90;66.70
32293;DHT22;43233;48.608;8.838;2024-03-08T00:56:58;2.90;66.40
32293;DHT22;43233;48.608;8.838;2024-03-08T00:59:25;2.80;66.20
32293;DHT22;43233;48.608;8.838;2024-03-08T01:01:51;2.80;66.20
32293;DHT22;43233;48.608;8.838;2024-03-08T01:04:17;2.80;66.40
32293;DHT22;43233;48.608;8.838;2024-03-08T01:06:43;2.80;66.50
32293;DHT22;43233;48.608;8.838;2024-03-08T01:09:11;2.70;66.50
32293;DHT22;43233;48.608;8.838;2024-03-08T01:11:37;2.70;66.60
32293;DHT22;43233;48.608;8.838;2024-03-08T01:14:03;2.70;66.90
32293;DHT22;43233;48.608;8.838;2024-03-08T01:16:29;2.70;66.80
32293;DHT22;43233;48.608;8.838;2024-03-08T01:18:54;2.70;66.80
32293;DHT22;43233;48.608;8.838;2024-03-08T01:21:20;2.60;66.80
32293;DHT22;43233;48.608;8.838;2024-03-08T01:23:45;2.60;66.80
32293;DHT22;43233;48.608;8.838;2024-03-08T01:26:11;2.60;67.00
32293;DHT22;43233;48.608;8.838;2024-03-08T01:28:37;2.60;66.90
32293;DHT22;43233;48.608;8.838;2024-03-08T01:31:02;2.60;66.80
32293;DHT22;43233;48.608;8.838;2024-03-08T01:33:28;2.50;66.90
32293;DHT22;43233;48.608;8.838;2024-03-08T01:35:55;2.50;66.80
32293;DHT22;43233;48.608;8.838;2024-03-08T01:38:22;2.50;66.90
32293;DHT22;43233;48.608;8.838;2024-03-08T01:40:49;2.50;67.00
32293;DHT22;43233;48.608;8.838;2024-03-08T01:45:43;2.40;66.90
32293;DHT22;43233;48.608;8.838;2024-03-08T01:48:09;2.40;66.70
32293;DHT22;43233;48.608;8.838;2024-03-08T01:50:35;2.40;66.90
32293;DHT22;43233;48.608;8.838;2024-03-08T01:53:02;2.40;66.90
32293;DHT22;43233;48.608;8.838;2024-03-08T01:55:28;2.30;67.10
32293;DHT22;43233;48.608;8.838;2024-03-08T01:57:54;2.30;67.00
32293;DHT22;43233;48.608;8.838;2024-03-08T02:00:21;2.30;67.10
32293;DHT22;43233;48.608;8.838;2024-03-08T02:02:46;2.30;67.00
32293;DHT22;43233;48.608;8.838;2024-03-08T02:05:14;2.20;66.90
32293;DHT22;43233;48.608;8.838;2024-03-08T02:07:43;2.20;66.70
32293;DHT22;43233;48.608;8.838;2024-03-08T02:10:12;2.20;66.70
32293;DHT22;43233;48.608;8.838;2024-03-08T02:12:38;2.10;66.90
32293;DHT22;43233;48.608;8.838;2024-03-08T02:15:04;2.10;67.00
32293;DHT22;43233;48.608;8.838;2024-03-08T02:17:32;2.10;67.30
32293;DHT22;43233;48.608;8.838;2024-03-08T02:20:02;2.00;67.60
32293;DHT22;43233;48.608;8.838;2024-03-08T02:22:29;2.00;67.80
32293;DHT22;43233;48.608;8.838;2024-03-08T02:24:55;2.00;68.00
32293;DHT22;43233;48.608;8.838;2024-03-08T02:27:25;2.00;68.20
32293;DHT22;43233;48.608;8.838;2024-03-08T02:29:55;2.00;68.50
32293;DHT22;43233;48.608;8.838;2024-03-08T02:32:24;2.00;68.60
32293;DHT22;43233;48.608;8.838;2024-03-08T02:34:50;2.00;68.60
32293;DHT22;43233;48.608;8.838;2024-03-08T02:37:16;2.00;68.80
32293;DHT22;43233;48.608;8.838;2024-03-08T02:39:42;2.00;69.00
32293;DHT22;43233;48.608;8.838;2024-03-08T02:42:08;2.00;69.20
32293;DHT22;43233;48.608;8.838;2024-03-08T02:44:34;2.00;69.10
32293;DHT22;43233;48.608;8.838;2024-03-08T02:47:00;1.90;69.10
32293;DHT22;43233;48.608;8.838;2024-03-08T02:49:26;1.90;69.10
32293;DHT22;43233;48.608;8.838;2024-03-08T02:51:52;1.90;69.10
32293;DHT22;43233;48.608;8.838;2024-03-08T02:54:19;1.90;69.20
32293;DHT22;43233;48.608;8.838;2024-03-08T02:56:45;1.90;69.30
32293;DHT22;43233;48.608;8.838;2024-03-08T02:59:12;1.90;69.20
32293;DHT22;43233;48.608;8.838;2024-03-08T03:01:38;1.90;69.40
32293;DHT22;43233;48.608;8.838;2024-03-08T03:04:04;1.90;69.30
32293;DHT22;43233;48.608;8.838;2024-03-08T03:06:30;1.90;69.20
32293;DHT22;43233;48.608;8.838;2024-03-08T03:08:56;1.90;69.40
32293;DHT22;43233;48.608;8.838;2024-03-08T03:11:23;1.80;69.30
32293;DHT22;43233;48.608;8.838;2024-03-08T03:13:48;1.80;69.40
32293;DHT22;43233;48.608;8.838;2024-03-08T03:16:18;1.80;69.40
32293;DHT22;43233;48.608;8.838;2024-03-08T03:18:45;1.80;69.50
32293;DHT22;43233;48.608;8.838;2024-03-08T03:21:11;1.80;69.60
32293;DHT22;43233;48.608;8.838;2024-03-08T03:23:38;1.70;69.40
32293;DHT22;43233;48.608;8.838;2024-03-08T03:26:05;1.70;69.50
32293;DHT22;43233;48.608;8.838;2024-03-08T03:28:33;1.70;69.40
32293;DHT22;43233;48.608;8.838;2024-03-08T03:30:59;1.70;69.40
32293;DHT22;43233;48.608;8.838;2024-03-08T03:33:25;1.60;69.50
32293;DHT22;43233;48.608;8.838;2024-03-08T03:35:50;1.60;69.40
32293;DHT22;43233;48.608;8.838;2024-03-08T03:38:17;1.60;69.50
32293;DHT22;43233;48.608;8.838;2024-03-08T03:40:45;1.60;69.40
32293;DHT22;43233;48.608;8.838;2024-03-08T03:43:11;1.60;69.60
32293;DHT22;43233;48.608;8.838;2024-03-08T03:45:37;1.50;69.50
32293;DHT22;43233;48.608;8.838;2024-03-08T03:48:05;1.50;69.60
32293;DHT22;43233;48.608;8.838;2024-03-08T03:50:40;1.50;69.60
32293;DHT22;43233;48.608;8.838;2024-03-08T03:53:05;1.50;69.50
32293;DHT22;43233;48.608;8.838;2024-03-08T03:55:34;1.50;69.60
32293;DHT22;43233;48.608;8.838;2024-03-08T03:58:00;1.50;69.80
32293;DHT22;43233;48.608;8.838;2024-03-08T04:00:27;1.50;69.90
32293;DHT22;43233;48.608;8.838;2024-03-08T04:02:53;1.40;69.90
32293;DHT22;43233;48.608;8.838;2024-03-08T04:05:18;1.40;69.80
32293;DHT22;43233;48.608;8.838;2024-03-08T04:07:44;1.40;69.70
32293;DHT22;43233;48.608;8.838;2024-03-08T04:10:11;1.40;69.70
32293;DHT22;43233;48.608;8.838;2024-03-08T04:12:37;1.30;69.50
32293;DHT22;43233;48.608;8.838;2024-03-08T04:15:03;1.30;69.60
32293;DHT22;43233;48.608;8.838;2024-03-08T04:17:30;1.30;69.70
32293;DHT22;43233;48.608;8.838;2024-03-08T04:19:56;1.30;69.80
32293;DHT22;43233;48.608;8.838;2024-03-08T04:22:22;1.20;69.80
32293;DHT22;43233;48.608;8.838;2024-03-08T04:24:48;1.30;69.80
32293;DHT22;43233;48.608;8.838;2024-03-08T04:27:14;1.20;69.70
32293;DHT22;43233;48.608;8.838;2024-03-08T04:29:40;1.20;70.40
32293;DHT22;43233;48.608;8.838;2024-03-08T04:32:06;1.20;69.70
32293;DHT22;43233;48.608;8.838;2024-03-08T04:34:35;1.10;69.80
32293;DHT22;43233;48.608;8.838;2024-03-08T04:37:04;1.10;69.80
32293;DHT22;43233;48.608;8.838;2024-03-08T04:39:30;1.10;69.90
32293;DHT22;43233;48.608;8.838;2024-03-08T04:42:02;1.10;69.90
32293;DHT22;43233;48.608;8.838;2024-03-08T04:44:35;1.10;69.90
32293;DHT22;43233;48.608;8.838;2024-03-08T04:47:01;1.10;70.00
32293;DHT22;43233;48.608;8.838;2024-03-08T04:49:27;1.10;70.00
32293;DHT22;43233;48.608;8.838;2024-03-08T04:51:53;1.10;69.90
32293;DHT22;43233;48.608;8.838;2024-03-08T04:54:19;1.00;69.70
32293;DHT22;43233;48.608;8.838;2024-03-08T04:56:44;1.00;69.70
32293;DHT22;43233;48.608;8.838;2024-03-08T04:59:10;1.00;69.70
32293;DHT22;43233;48.608;8.838;2024-03-08T05:01:36;1.00;69.70
32293;DHT22;43233;48.608;8.838;2024-03-08T05:04:04;0.90;69.60
32293;DHT22;43233;48.608;8.838;2024-03-08T05:06:31;0.90;69.70
32293;DHT22;43233;48.608;8.838;2024-03-08T05:08:56;0.90;69.70
32293;DHT22;43233;48.608;8.838;2024-03-08T05:11:22;0.90;69.90
32293;DHT22;43233;48.608;8.838;2024-03-08T05:13:48;0.90;70.10
32293;DHT22;43233;48.608;8.838;2024-03-08T05:16:13;0.90;70.20
32293;DHT22;43233;48.608;8.838;2024-03-08T05:18:41;0.90;70.20
32293;DHT22;43233;48.608;8.838;2024-03-08T05:21:07;0.90;70.30
32293;DHT22;43233;48.608;8.838;2024-03-08T05:23:34;0.90;70.50
32293;DHT22;43233;48.608;8.838;2024-03-08T05:26:00;0.90;70.70
32293;DHT22;43233;48.608;8.838;2024-03-08T05:28:26;0.90;71.00
32293;DHT22;43233;48.608;8.838;2024-03-08T05:30:52;0.90;71.00
32293;DHT22;43233;48.608;8.838;2024-03-08T05:33:17;1.00;71.10
32293;DHT22;43233;48.608;8.838;2024-03-08T05:35:44;1.00;71.40
32293;DHT22;43233;48.608;8.838;2024-03-08T05:38:10;1.00;71.50
32293;DHT22;43233;48.608;8.838;2024-03-08T05:40:38;1.00;71.70
32293;DHT22;43233;48.608;8.838;2024-03-08T05:43:03;1.10;71.80
32293;DHT22;43233;48.608;8.838;2024-03-08T05:45:29;1.10;71.90
32293;DHT22;43233;48.608;8.838;2024-03-08T05:47:55;1.10;72.00
32293;DHT22;43233;48.608;8.838;2024-03-08T05:50:20;1.10;71.90
32293;DHT22;43233;48.608;8.838;2024-03-08T05:52:46;1.20;72.00
32293;DHT22;43233;48.608;8.838;2024-03-08T05:55:13;1.20;72.30
32293;DHT22;43233;48.608;8.838;2024-03-08T05:57:40;1.20;72.10
32293;DHT22;43233;48.608;8.838;2024-03-08T06:00:06;1.20;72.00
32293;DHT22;43233;48.608;8.838;2024-03-08T06:02:32;1.20;72.10
32293;DHT22;43233;48.608;8.838;2024-03-08T06:04:58;1.30;72.40
32293;DHT22;43233;48.608;8.838;2024-03-08T06:07:24;1.30;72.50
32293;DHT22;43233;48.608;8.838;2024-03-08T06:09:49;1.30;72.20
32293;DHT22;43233;48.608;8.838;2024-03-08T06:12:15;1.40;72.40
32293;DHT22;43233;48.608;8.838;2024-03-08T06:14:45;1.40;72.20
32293;DHT22;43233;48.608;8.838;2024-03-08T06:17:11;1.40;72.20
32293;DHT22;43233;48.608;8.838;2024-03-08T06:19:37;1.40;72.20
32293;DHT22;43233;48.608;8.838;2024-03-08T06:22:02;1.40;72.20
32293;DHT22;43233;48.608;8.838;2024-03-08T06:24:31;1.50;72.20
32293;DHT22;43233;48.608;8.838;2024-03-08T06:26:57;1.50;72.20
32293;DHT22;43233;48.608;8.838;2024-03-08T06:29:22;1.50;73.00
32293;DHT22;43233;48.608;8.838;2024-03-08T06:31:49;1.50;71.80
32293;DHT22;43233;48.608;8.838;2024-03-08T06:34:15;1.50;72.10
32293;DHT22;43233;48.608;8.838;2024-03-08T06:36:41;1.50;72.40
32293;DHT22;43233;48.608;8.838;2024-03-08T06:39:06;1.60;72.00
32293;DHT22;43233;48.608;8.838;2024-03-08T06:41:36;1.60;71.50
32293;DHT22;43233;48.608;8.838;2024-03-08T06:44:01;1.60;71.70
32293;DHT22;43233;48.608;8.838;2024-03-08T06:46:27;1.60;72.00
32293;DHT22;43233;48.608;8.838;2024-03-08T06:48:53;1.60;71.70
32293;DHT22;43233;48.608;8.838;2024-03-08T06:51:19;1.60;71.80
32293;DHT22;43233;48.608;8.838;2024-03-08T06:53:45;1.70;72.00
32293;DHT22;43233;48.608;8.838;2024-03-08T06:56:10;1.70;71.90
32293;DHT22;43233;48.608;8.838;2024-03-08T06:58:36;1.70;71.60
32293;DHT22;43233;48.608;8.838;2024-03-08T07:01:03;1.70;71.50
32293;DHT22;43233;48.608;8.838;2024-03-08T07:03:33;1.70;71.70
32293;DHT22;43233;48.608;8.838;2024-03-08T07:05:58;1.70;71.80
32293;DHT22;43233;48.608;8.838;2024-03-08T07:08:24;1.70;71.90
32293;DHT22;43233;48.608;8.838;2024-03-08T07:10:52;1.80;71.30
32293;DHT22;43233;48.608;8.838;2024-03-08T07:13:18;1.80;71.70
32293;DHT22;43233;48.608;8.838;2024-03-08T07:15:44;1.80;71.70
32293;DHT22;43233;48.608;8.838;2024-03-08T07:18:11;1.80;71.70
32293;DHT22;43233;48.608;8.838;2024-03-08T07:20:40;1.80;71.70
32293;DHT22;43233;48.608;8.838;2024-03-08T07:23:05;1.80;71.60
32293;DHT22;43233;48.608;8.838;2024-03-08T07:25:31;1.80;71.70
32293;DHT22;43233;48.608;8.838;2024-03-08T07:27:57;1.80;71.70
32293;DHT22;43233;48.608;8.838;2024-03-08T07:30:25;1.80;71.60
32293;DHT22;43233;48.608;8.838;2024-03-08T07:33:09;1.90;72.00
32293;DHT22;43233;48.608;8.838;2024-03-08T07:35:37;1.90;71.40
32293;DHT22;43233;48.608;8.838;2024-03-08T07:38:07;1.90;71.60
32293;DHT22;43233;48.608;8.838;2024-03-08T07:40:40;1.90;71.80
32293;DHT22;43233;48.608;8.838;2024-03-08T07:43:09;1.90;71.50
32293;DHT22;43233;48.608;8.838;2024-03-08T07:45:36;1.90;71.10
32293;DHT22;43233;48.608;8.838;2024-03-08T07:48:03;1.90;71.20
32293;DHT22;43233;48.608;8.838;2024-03-08T07:50:28;1.90;72.00
32293;DHT22;43233;48.608;8.838;2024-03-08T07:52:54;2.00;72.00
32293;DHT22;43233;48.608;8.838;2024-03-08T07:55:20;2.00;72.10
32293;DHT22;43233;48.608;8.838;2024-03-08T07:57:47;2.00;72.20
32293;DHT22;43233;48.608;8.838;2024-03-08T08:00:13;2.00;72.20
32293;DHT22;43233;48.608;8.838;2024-03-08T08:02:46;2.10;72.00
32293;DHT22;43233;48.608;8.838;2024-03-08T08:05:12;2.10;71.50
32293;DHT22;43233;48.608;8.838;2024-03-08T08:07:38;2.10;71.70
32293;DHT22;43233;48.608;8.838;2024-03-08T08:10:06;2.20;71.80
32293;DHT22;43233;48.608;8.838;2024-03-08T08:12:32;2.20;71.80
32293;DHT22;43233;48.608;8.838;2024-03-08T08:14:59;2.20;71.50
32293;DHT22;43233;48.608;8.838;2024-03-08T08:17:25;2.20;71.50
32293;DHT22;43233;48.608;8.838;2024-03-08T08:19:50;2.20;71.50
32293;DHT22;43233;48.608;8.838;2024-03-08T08:22:16;2.20;71.30
32293;DHT22;43233;48.608;8.838;2024-03-08T08:24:43;2.30;71.10
32293;DHT22;43233;48.608;8.838;2024-03-08T08:27:09;2.30;70.50
32293;DHT22;43233;48.608;8.838;2024-03-08T08:29:34;2.30;70.30
32293;DHT22;43233;48.608;8.838;2024-03-08T08:32:00;2.30;70.80
32293;DHT22;43233;48.608;8.838;2024-03-08T08:34:26;2.30;70.30
32293;DHT22;43233;48.608;8.838;2024-03-08T08:36:52;2.30;70.20
32293;DHT22;43233;48.608;8.838;2024-03-08T08:39:18;2.40;70.00
32293;DHT22;43233;48.608;8.838;2024-03-08T08:41:44;2.30;69.00
32293;DHT22;43233;48.608;8.838;2024-03-08T08:44:10;2.30;69.70
32293;DHT22;43233;48.608;8.838;2024-03-08T08:46:37;2.40;70.20
32293;DHT22;43233;48.608;8.838;2024-03-08T08:49:04;2.40;70.30
32293;DHT22;43233;48.608;8.838;2024-03-08T08:51:30;2.40;70.40
32293;DHT22;43233;48.608;8.838;2024-03-08T08:53:56;2.50;69.20
32293;DHT22;43233;48.608;8.838;2024-03-08T08:56:22;2.50;69.20
32293;DHT22;43233;48.608;8.838;2024-03-08T08:58:47;2.40;69.70
32293;DHT22;43233;48.608;8.838;2024-03-08T09:01:14;2.40;70.10
32293;DHT22;43233;48.608;8.838;2024-03-08T09:03:40;2.40;69.70
32293;DHT22;43233;48.608;8.838;2024-03-08T09:06:08;2.40;69.70
32293;DHT22;43233;48.608;8.838;2024-03-08T09:08:39;2.40;70.30
32293;DHT22;43233;48.608;8.838;2024-03-08T09:11:05;2.50;70.70
32293;DHT22;43233;48.608;8.838;2024-03-08T09:13:31;2.50;70.70
32293;DHT22;43233;48.608;8.838;2024-03-08T09:15:56;2.60;68.90
32293;DHT22;43233;48.608;8.838;2024-03-08T09:18:22;2.60;68.50
32293;DHT22;43233;48.608;8.838;2024-03-08T09:20:49;2.60;68.40
32293;DHT22;43233;48.608;8.838;2024-03-08T09:23:15;2.60;69.00
32293;DHT22;43233;48.608;8.838;2024-03-08T09:25:42;2.70;69.30
32293;DHT22;43233;48.608;8.838;2024-03-08T09:28:09;2.70;68.90
32293;DHT22;43233;48.608;8.838;2024-03-08T09:30:34;2.70;68.70
32293;DHT22;43233;48.608;8.838;2024-03-08T09:33:01;2.70;69.10
32293;DHT22;43233;48.608;8.838;2024-03-08T09:35:27;2.80;69.20
32293;DHT22;43233;48.608;8.838;2024-03-08T09:37:53;2.80;68.20
32293;DHT22;43233;48.608;8.838;2024-03-08T09:40:19;2.70;67.60
32293;DHT22;43233;48.608;8.838;2024-03-08T09:42:46;2.80;67.90
32293;DHT22;43233;48.608;8.838;2024-03-08T09:45:13;2.80;67.50
32293;DHT22;43233;48.608;8.838;2024-03-08T09:47:45;2.80;67.10
32293;DHT22;43233;48.608;8.838;2024-03-08T09:50:11;2.70;67.40
32293;DHT22;43233;48.608;8.838;2024-03-08T09:52:41;2.70;67.50
32293;DHT22;43233;48.608;8.838;2024-03-08T09:55:09;2.70;67.60
32293;DHT22;43233;48.608;8.838;2024-03-08T09:57:39;2.80;67.90
32293;DHT22;43233;48.608;8.838;2024-03-08T10:00:05;2.90;66.80
32293;DHT22;43233;48.608;8.838;2024-03-08T10:02:45;2.90;67.10
32293;DHT22;43233;48.608;8.838;2024-03-08T10:05:12;2.90;66.80
32293;DHT22;43233;48.608;8.838;2024-03-08T10:07:38;2.90;66.40
32293;DHT22;43233;48.608;8.838;2024-03-08T10:10:04;3.00;66.40
32293;DHT22;43233;48.608;8.838;2024-03-08T10:12:30;2.90;66.80
32293;DHT22;43233;48.608;8.838;2024-03-08T10:14:58;3.00;67.80
32293;DHT22;43233;48.608;8.838;2024-03-08T10:17:24;3.00;66.50
32293;DHT22;43233;48.608;8.838;2024-03-08T10:19:51;3.00;66.40
32293;DHT22;43233;48.608;8.838;2024-03-08T10:22:19;3.10;66.30
32293;DHT22;43233;48.608;8.838;2024-03-08T10:24:48;3.10;65.60
32293;DHT22;43233;48.608;8.838;2024-03-08T10:27:16;3.10;66.10
32293;DHT22;43233;48.608;8.838;2024-03-08T10:29:41;3.10;66.40
32293;DHT22;43233;48.608;8.838;2024-03-08T10:32:09;3.10;66.50
32293;DHT22;43233;48.608;8.838;2024-03-08T10:34:35;3.20;65.50
32293;DHT22;43233;48.608;8.838;2024-03-08T10:37:04;3.30;64.90
32293;DHT22;43233;48.608;8.838;2024-03-08T10:39:35;3.30;64.50
32293;DHT22;43233;48.608;8.838;2024-03-08T10:42:03;3.40;63.70
32293;DHT22;43233;48.608;8.838;2024-03-08T10:47:03;3.40;63.50
32293;DHT22;43233;48.608;8.838;2024-03-08T10:49:34;3.50;63.80
32293;DHT22;43233;48.608;8.838;2024-03-08T10:52:04;3.50;62.80
32293;DHT22;43233;48.608;8.838;2024-03-08T10:54:34;3.50;63.60
32293;DHT22;43233;48.608;8.838;2024-03-08T10:57:03;3.50;63.60
32293;DHT22;43233;48.608;8.838;2024-03-08T10:59:31;3.50;63.80
32293;DHT22;43233;48.608;8.838;2024-03-08T11:01:57;3.50;63.80
32293;DHT22;43233;48.608;8.838;2024-03-08T11:04:22;3.50;63.90
32293;DHT22;43233;48.608;8.838;2024-03-08T11:06:50;3.50;62.90
32293;DHT22;43233;48.608;8.838;2024-03-08T11:09:28;3.50;62.40
32293;DHT22;43233;48.608;8.838;2024-03-08T11:12:23;3.50;62.60
32293;DHT22;43233;48.608;8.838;2024-03-08T11:14:54;3.60;63.00
32293;DHT22;43233;48.608;8.838;2024-03-08T11:17:25;3.60;62.40
32293;DHT22;43233;48.608;8.838;2024-03-08T11:19:51;3.60;61.50
32293;DHT22;43233;48.608;8.838;2024-03-08T11:22:31;3.60;61.80
32293;DHT22;43233;48.608;8.838;2024-03-08T11:25:04;3.60;62.60
32293;DHT22;43233;48.608;8.838;2024-03-08T11:27:36;3.70;62.80
32293;DHT22;43233;48.608;8.838;2024-03-08T11:30:06;3.70;63.20
32293;DHT22;43233;48.608;8.838;2024-03-08T11:32:52;3.90;63.00
32293;DHT22;43233;48.608;8.838;2024-03-08T11:35:22;4.00;61.20
32293;DHT22;43233;48.608;8.838;2024-03-08T11:37:50;4.00;62.10
32293;DHT22;43233;48.608;8.838;2024-03-08T11:40:16;4.20;61.20
32293;DHT22;43233;48.608;8.838;2024-03-08T11:42:46;4.30;61.00
32293;DHT22;43233;48.608;8.838;2024-03-08T11:45:13;4.50;60.20
32293;DHT22;43233;48.608;8.838;2024-03-08T11:47:41;4.60;60.40
32293;DHT22;43233;48.608;8.838;2024-03-08T11:50:07;4.80;58.60
32293;DHT22;43233;48.608;8.838;2024-03-08T11:52:36;5.10;57.40
32293;DHT22;43233;48.608;8.838;2024-03-08T11:55:03;5.20;56.60
32293;DHT22;43233;48.608;8.838;2024-03-08T11:57:30;5.30;56.30
32293;DHT22;43233;48.608;8.838;2024-03-08T11:59:58;5.50;57.20
32293;DHT22;43233;48.608;8.838;2024-03-08T12:02:26;6.50;54.70
32293;DHT22;43233;48.608;8.838;2024-03-08T12:04:59;7.10;49.40
32293;DHT22;43233;48.608;8.838;2024-03-08T12:07:26;8.10;48.30
32293;DHT22;43233;48.608;8.838;2024-03-08T12:10:18;9.30;43.00
32293;DHT22;43233;48.608;8.838;2024-03-08T12:12:55;10.40;36.50
32293;DHT22;43233;48.608;8.838;2024-03-08T12:15:24;11.40;34.20
32293;DHT22;43233;48.608;8.838;2024-03-08T12:17:51;12.10;32.50
32293;DHT22;43233;48.608;8.838;2024-03-08T12:22:46;14.10;27.10
32293;DHT22;43233;48.608;8.838;2024-03-08T12:25:12;14.60;25.60
32293;DHT22;43233;48.608;8.838;2024-03-08T12:27:42;15.20;24.60
32293;DHT22;43233;48.608;8.838;2024-03-08T12:30:24;15.70;24.50
32293;DHT22;43233;48.608;8.838;2024-03-08T12:33:00;16.20;22.90
32293;DHT22;43233;48.608;8.838;2024-03-08T12:35:30;16.60;22.10
32293;DHT22;43233;48.608;8.838;2024-03-08T12:37:57;16.80;21.00
32293;DHT22;43233;48.608;8.838;2024-03-08T12:40:27;17.00;20.50
32293;DHT22;43233;48.608;8.838;2024-03-08T12:42:57;17.10;20.00
32293;DHT22;43233;48.608;8.838;2024-03-08T12:45:23;17.20;20.40
32293;DHT22;43233;48.608;8.838;2024-03-08T12:47:50;17.30;20.10
32293;DHT22;43233;48.608;8.838;2024-03-08T12:50:17;17.60;20.70
32293;DHT22;43233;48.608;8.838;2024-03-08T12:52:43;17.90;20.50
32293;DHT22;43233;48.608;8.838;2024-03-08T12:55:09;18.00;19.70
32293;DHT22;43233;48.608;8.838;2024-03-08T12:57:37;17.90;20.00
32293;DHT22;43233;48.608;8.838;2024-03-08T13:00:05;18.20;20.20
32293;DHT22;43233;48.608;8.838;2024-03-08T13:02:31;18.20;19.40
32293;DHT22;43233;48.608;8.838;2024-03-08T13:04:58;18.10;19.30
32293;DHT22;43233;48.608;8.838;2024-03-08T13:07:24;17.80;19.60
32293;DHT22;43233;48.608;8.838;2024-03-08T13:09:54;17.40;20.10
32293;DHT22;43233;48.608;8.838;2024-03-08T13:12:23;16.90;20.00
32293;DHT22;43233;48.608;8.838;2024-03-08T13:14:49;16.50;21.50
32293;DHT22;43233;48.608;8.838;2024-03-08T13:17:15;15.90;22.10
32293;DHT22;43233;48.608;8.838;2024-03-08T13:19:41;15.60;22.90
32293;DHT22;43233;48.608;8.838;2024-03-08T13:22:08;15.50;23.80
32293;DHT22;43233;48.608;8.838;2024-03-08T13:24:43;15.10;24.10
32293;DHT22;43233;48.608;8.838;2024-03-08T13:27:10;14.70;24.60
32293;DHT22;43233;48.608;8.838;2024-03-08T13:29:48;14.40;25.80
32293;DHT22;43233;48.608;8.838;2024-03-08T13:32:15;14.20;26.80
32293;DHT22;43233;48.608;8.838;2024-03-08T13:34:44;14.10;26.60
32293;DHT22;43233;48.608;8.838;2024-03-08T13:37:10;14.00;26.60
32293;DHT22;43233;48.608;8.838;2024-03-08T13:39:37;13.80;26.80
32293;DHT22;43233;48.608;8.838;2024-03-08T13:42:16;13.70;27.30
32293;DHT22;43233;48.608;8.838;2024-03-08T13:44:48;13.60;26.80
32293;DHT22;43233;48.608;8.838;2024-03-08T13:47:15;13.40;27.30
32293;DHT22;43233;48.608;8.838;2024-03-08T13:49:41;13.20;28.10
32293;DHT22;43233;48.608;8.838;2024-03-08T13:52:06;13.10;28.40
32293;DHT22;43233;48.608;8.838;2024-03-08T13:54:35;12.90;28.20
32293;DHT22;43233;48.608;8.838;2024-03-08T13:57:01;12.80;29.10
32293;DHT22;43233;48.608;8.838;2024-03-08T13:59:32;12.60;28.30
32293;DHT22;43233;48.608;8.838;2024-03-08T14:02:02;12.50;29.80
32293;DHT22;43233;48.608;8.838;2024-03-08T14:04:30;12.50;29.60
32293;DHT22;43233;48.608;8.838;2024-03-08T14:06:56;12.30;29.30
32293;DHT22;43233;48.608;8.838;2024-03-08T14:09:25;12.20;29.40
32293;DHT22;43233;48.608;8.838;2024-03-08T14:11:51;12.00;30.10
32293;DHT22;43233;48.608;8.838;2024-03-08T14:14:23;11.90;29.80
32293;DHT22;43233;48.608;8.838;2024-03-08T14:16:49;11.70;30.70
32293;DHT22;43233;48.608;8.838;2024-03-08T14:19:19;11.60;31.70
32293;DHT22;43233;48.608;8.838;2024-03-08T14:21:46;11.50;30.90
32293;DHT22;43233;48.608;8.838;2024-03-08T14:24:16;11.50;31.40
32293;DHT22;43233;48.608;8.838;2024-03-08T14:26:42;11.40;33.10
32293;DHT22;43233;48.608;8.838;2024-03-08T14:29:08;11.50;31.60
32293;DHT22;43233;48.608;8.838;2024-03-08T14:31:35;11.50;31.70
32293;DHT22;43233;48.608;8.838;2024-03-08T14:34:01;11.40;30.70
32293;DHT22;43233;48.608;8.838;2024-03-08T14:36:29;11.30;31.80
32293;DHT22;43233;48.608;8.838;2024-03-08T14:38:55;11.30;32.30
32293;DHT22;43233;48.608;8.838;2024-03-08T14:41:20;11.30;31.80
32293;DHT22;43233;48.608;8.838;2024-03-08T14:43:47;11.30;32.00
32293;DHT22;43233;48.608;8.838;2024-03-08T14:46:14;11.30;33.30
32293;DHT22;43233;48.608;8.838;2024-03-08T14:48:43;11.40;34.70
32293;DHT22;43233;48.608;8.838;2024-03-08T14:51:10;11.40;34.70
32293;DHT22;43233;48.608;8.838;2024-03-08T14:53:36;11.50;35.00
32293;DHT22;43233;48.608;8.838;2024-03-08T14:56:07;11.60;33.90
32293;DHT22;43233;48.608;8.838;2024-03-08T14:58:33;11.60;33.60
32293;DHT22;43233;48.608;8.838;2024-03-08T15:00:59;11.50;33.90
32293;DHT22;43233;48.608;8.838;2024-03-08T15:03:26;11.50;34.60
32293;DHT22;43233;48.608;8.838;2024-03-08T15:05:52;11.40;34.80
32293;DHT22;43233;48.608;8.838;2024-03-08T15:08:19;11.50;33.60
32293;DHT22;43233;48.608;8.838;2024-03-08T15:10:48;11.50;33.60
32293;DHT22;43233;48.608;8.838;2024-03-08T15:13:20;11.40;34.20
32293;DHT22;43233;48.608;8.838;2024-03-08T15:15:53;11.30;35.30
32293;DHT22;43233;48.608;8.838;2024-03-08T15:18:25;11.30;35.10
32293;DHT22;43233;48.608;8.838;2024-03-08T15:20:52;11.30;34.20
32293;DHT22;43233;48.608;8.838;2024-03-08T15:23:18;11.20;34.70
32293;DHT22;43233;48.608;8.838;2024-03-08T15:25:46;11.20;34.60
32293;DHT22;43233;48.608;8.838;2024-03-08T15:28:17;11.20;34.50
32293;DHT22;43233;48.608;8.838;2024-03-08T15:30:46;11.10;34.20
32293;DHT22;43233;48.608;8.838;2024-03-08T15:33:16;11.00;34.80
32293;DHT22;43233;48.608;8.838;2024-03-08T15:35:50;10.90;35.40
32293;DHT22;43233;48.608;8.838;2024-03-08T15:38:23;10.80;35.80
32293;DHT22;43233;48.608;8.838;2024-03-08T15:40:49;10.80;35.20
32293;DHT22;43233;48.608;8.838;2024-03-08T15:43:16;10.80;35.50
32293;DHT22;43233;48.608;8.838;2024-03-08T15:45:45;10.80;35.70
32293;DHT22;43233;48.608;8.838;2024-03-08T15:48:11;10.70;35.60
32293;DHT22;43233;48.608;8.838;2024-03-08T15:50:38;10.70;35.90